createdAt,value
2023-02-26T00:01:01.382Z,33.25
2023-02-26T00:02:04.094Z,32.48
2023-02-26T00:03:06.539Z,32.63
2023-02-26T00:04:10.085Z,32.67
2023-02-26T00:05:13.947Z,32.86
2023-02-26T00:06:17.424Z,32.27
2023-02-26T00:07:19.924Z,31.77
2023-02-26T00:08:22.904Z,31.93
2023-02-26T00:09:26.550Z,32.15
2023-02-26T00:10:29.430Z,32.45
2023-02-26T00:11:32.680Z,32.51
2023-02-26T00:12:35.744Z,32.60
2023-02-26T00:13:39.838Z,32.50
2023-02-26T00:14:43.520Z,32.36
2023-02-26T00:15:47.884Z,32.35
2023-02-26T00:18:07.699Z,32.50
2023-02-26T00:19:10.950Z,32.11
2023-02-26T00:20:16.339Z,32.31
2023-02-26T00:21:20.323Z,31.98
2023-02-26T00:22:23.433Z,31.09
2023-02-26T00:23:26.724Z,32.48
2023-02-26T00:24:30.564Z,33.30
2023-02-26T00:25:33.013Z,34.15
2023-02-26T00:26:35.647Z,34.85
2023-02-26T00:27:40.321Z,35.24
2023-02-26T00:28:43.621Z,35.45
2023-02-26T00:29:46.807Z,35.85
2023-02-26T00:30:51.124Z,36.03
2023-02-26T00:31:54.977Z,36.16
2023-02-26T00:32:59.462Z,36.38
2023-02-26T00:34:03.023Z,36.47
2023-02-26T00:35:07.916Z,36.67
2023-02-26T00:36:17.472Z,36.85
2023-02-26T00:37:27.758Z,36.96
2023-02-26T00:38:31.629Z,37.08
2023-02-26T00:39:53.054Z,37.21
2023-02-26T00:40:56.231Z,37.39
2023-02-26T00:41:59.179Z,37.62
2023-02-26T00:43:06.053Z,37.69
2023-02-26T00:44:09.690Z,37.79
2023-02-26T00:45:13.244Z,37.89
2023-02-26T00:46:37.598Z,37.97
2023-02-26T00:47:48.947Z,38.08
2023-02-26T00:49:10.419Z,38.19
2023-02-26T00:50:23.599Z,38.27
2023-02-26T00:51:38.730Z,38.38
2023-02-26T00:53:05.839Z,38.49
2023-02-26T00:54:11.704Z,38.56
2023-02-26T00:55:16.149Z,38.67
2023-02-26T00:56:18.715Z,38.75
2023-02-26T00:57:21.997Z,38.75
2023-02-26T00:58:24.705Z,38.85
2023-02-26T00:59:27.240Z,39.31
2023-02-26T01:00:30.356Z,39.31
2023-02-26T01:01:33.016Z,38.97
2023-02-26T01:02:36.285Z,39.11
2023-02-26T01:03:39.418Z,39.10
2023-02-26T01:04:43.662Z,39.13
2023-02-26T01:05:46.878Z,39.12
2023-02-26T01:06:54.284Z,39.16
2023-02-26T01:08:15.894Z,39.20
2023-02-26T01:10:34.991Z,39.24
2023-02-26T01:11:38.178Z,39.36
2023-02-26T01:12:41.052Z,39.45
2023-02-26T01:13:45.273Z,39.54
2023-02-26T01:14:49.826Z,39.48
2023-02-26T01:15:58.728Z,39.45
2023-02-26T01:17:31.108Z,39.44
2023-02-26T01:18:45.679Z,39.43
2023-02-26T01:19:57.405Z,39.37
2023-02-26T01:21:03.493Z,39.37
2023-02-26T01:22:09.851Z,39.41
2023-02-26T01:23:15.486Z,39.42
2023-02-26T01:24:18.982Z,39.47
2023-02-26T01:25:40.896Z,39.54
2023-02-26T01:26:44.427Z,39.55
2023-02-26T01:27:48.231Z,39.56
2023-02-26T01:28:51.628Z,39.56
2023-02-26T01:29:55.195Z,39.58
2023-02-26T01:31:00.206Z,39.61
2023-02-26T01:32:24.726Z,39.61
2023-02-26T01:33:32.746Z,39.60
2023-02-26T01:34:55.983Z,39.60
2023-02-26T01:37:24.701Z,39.65
2023-02-26T01:38:34.502Z,39.72
2023-02-26T01:39:42.557Z,39.76
2023-02-26T01:41:24.643Z,39.77
2023-02-26T01:42:27.232Z,39.79
2023-02-26T01:43:54.749Z,39.79
2023-02-26T01:45:32.088Z,39.82
2023-02-26T01:47:06.464Z,39.85
2023-02-26T01:48:19.028Z,39.88
2023-02-26T01:49:22.178Z,39.92
2023-02-26T01:50:29.735Z,39.96
2023-02-26T01:51:46.339Z,40.01
2023-02-26T01:52:52.917Z,40.05
2023-02-26T01:53:57.237Z,40.05
2023-02-26T01:54:59.839Z,40.10
2023-02-26T01:56:05.715Z,40.13
2023-02-26T01:57:13.309Z,40.19
2023-02-26T01:58:17.388Z,40.17
2023-02-26T01:59:21.945Z,40.15
2023-02-26T02:00:24.601Z,40.15
2023-02-26T02:01:29.128Z,40.14
2023-02-26T02:02:32.633Z,40.12
2023-02-26T02:03:38.390Z,40.13
2023-02-26T02:04:41.731Z,40.13
2023-02-26T02:06:05.714Z,40.18
2023-02-26T02:07:08.383Z,40.17
2023-02-26T02:08:12.026Z,40.15
2023-02-26T02:09:14.660Z,40.19
2023-02-26T02:10:18.139Z,40.25
2023-02-26T02:11:21.787Z,40.24
2023-02-26T02:12:40.214Z,40.41
2023-02-26T02:14:02.099Z,40.34
2023-02-26T02:15:11.636Z,40.30
2023-02-26T02:17:50.843Z,40.31
2023-02-26T02:19:03.170Z,40.37
2023-02-26T02:20:18.520Z,40.33
2023-02-26T02:21:44.646Z,40.36
2023-02-26T02:22:58.727Z,40.36
2023-02-26T02:24:11.084Z,40.35
2023-02-26T02:25:33.991Z,40.38
2023-02-26T02:26:58.393Z,40.36
2023-02-26T02:28:21.552Z,40.41
2023-02-26T02:29:43.124Z,40.41
2023-02-26T02:31:18.524Z,40.42
2023-02-26T02:32:24.096Z,40.48
2023-02-26T02:33:30.283Z,40.53
2023-02-26T02:34:39.648Z,40.53
2023-02-26T02:35:44.833Z,40.59
2023-02-26T02:37:02.517Z,40.67
2023-02-26T02:38:16.962Z,40.65
2023-02-26T02:40:49.456Z,40.62
2023-02-26T02:42:02.303Z,40.66
2023-02-26T02:43:10.633Z,40.71
2023-02-26T02:44:17.074Z,40.72
2023-02-26T02:45:23.364Z,40.73
2023-02-26T02:46:29.343Z,40.71
2023-02-26T02:47:33.883Z,40.69
2023-02-26T02:48:39.940Z,40.66
2023-02-26T02:49:47.014Z,40.64
2023-02-26T02:51:10.316Z,40.63
2023-02-26T02:52:18.021Z,40.68
2023-02-26T02:53:23.618Z,40.65
2023-02-26T02:54:32.771Z,40.68
2023-02-26T02:55:37.909Z,40.64
2023-02-26T02:56:44.545Z,40.60
2023-02-26T02:57:53.678Z,40.62
2023-02-26T03:00:14.937Z,40.63
2023-02-26T03:01:19.169Z,40.59
2023-02-26T03:02:39.994Z,40.58
2023-02-26T03:04:04.240Z,40.63
2023-02-26T03:05:07.027Z,40.59
2023-02-26T03:06:10.768Z,40.56
2023-02-26T03:07:14.288Z,40.59
2023-02-26T03:08:20.529Z,40.61
2023-02-26T03:09:23.005Z,40.95
2023-02-26T03:10:26.874Z,40.69
2023-02-26T03:11:31.383Z,40.69
2023-02-26T03:12:35.195Z,40.64
2023-02-26T03:13:39.171Z,40.71
2023-02-26T03:14:44.072Z,40.75
2023-02-26T03:16:20.627Z,40.77
2023-02-26T03:17:48.450Z,40.76
2023-02-26T03:20:25.575Z,40.75
2023-02-26T03:21:32.113Z,40.79
2023-02-26T03:22:59.496Z,40.86
2023-02-26T03:24:14.683Z,40.84
2023-02-26T03:25:20.945Z,40.87
2023-02-26T03:26:36.197Z,40.86
2023-02-26T03:29:26.224Z,40.88
2023-02-26T03:30:57.373Z,40.92
2023-02-26T03:33:49.912Z,40.91
2023-02-26T03:36:16.812Z,40.88
2023-02-26T03:37:27.942Z,40.93
2023-02-26T03:38:40.333Z,40.91
2023-02-26T03:39:46.124Z,40.94
2023-02-26T03:42:26.953Z,40.88
2023-02-26T03:43:51.849Z,40.88
2023-02-26T03:46:22.048Z,40.87
2023-02-26T03:47:25.000Z,40.87
2023-02-26T03:48:29.568Z,40.91
2023-02-26T03:50:54.603Z,40.92
2023-02-26T03:52:01.707Z,40.96
2023-02-26T03:53:08.968Z,41.02
2023-02-26T03:54:17.178Z,41.07
2023-02-26T03:55:26.429Z,41.09
2023-02-26T03:56:48.703Z,41.11
2023-02-26T03:58:09.556Z,41.03
2023-02-26T03:59:15.746Z,41.07
2023-02-26T04:00:19.369Z,41.11
2023-02-26T04:01:24.986Z,41.13
2023-02-26T04:02:52.913Z,41.09
2023-02-26T04:03:58.818Z,41.11
2023-02-26T04:06:30.782Z,41.06
2023-02-26T04:07:34.235Z,41.10
2023-02-26T04:08:37.403Z,41.12
2023-02-26T04:09:42.331Z,41.17
2023-02-26T04:10:47.386Z,41.12
2023-02-26T04:11:51.447Z,41.13
2023-02-26T04:12:54.964Z,41.09
2023-02-26T04:13:57.438Z,41.15
2023-02-26T04:15:00.856Z,41.10
2023-02-26T04:16:03.749Z,41.10
2023-02-26T04:17:06.452Z,41.13
2023-02-26T04:18:10.928Z,41.10
2023-02-26T04:19:13.740Z,41.10
2023-02-26T04:20:18.079Z,41.08
2023-02-26T04:21:21.344Z,41.09
2023-02-26T04:22:24.031Z,41.10
2023-02-26T04:23:27.766Z,41.13
2023-02-26T04:24:30.585Z,41.14
2023-02-26T04:25:35.366Z,41.21
2023-02-26T04:26:38.237Z,41.19
2023-02-26T04:27:42.142Z,41.19
2023-02-26T04:28:44.784Z,41.26
2023-02-26T04:29:47.589Z,41.31
2023-02-26T04:30:50.310Z,41.29
2023-02-26T04:31:54.476Z,41.40
2023-02-26T04:32:57.310Z,41.51
2023-02-26T04:34:00.744Z,41.53
2023-02-26T04:35:03.921Z,41.53
2023-02-26T04:36:07.658Z,41.50
2023-02-26T04:37:11.877Z,41.44
2023-02-26T04:38:14.472Z,41.47
2023-02-26T04:39:19.006Z,41.41
2023-02-26T04:40:23.511Z,41.40
2023-02-26T04:41:26.884Z,41.36
2023-02-26T04:42:29.461Z,41.33
2023-02-26T04:43:32.334Z,41.29
2023-02-26T04:44:36.818Z,41.29
2023-02-26T04:45:39.390Z,41.32
2023-02-26T04:46:41.960Z,41.31
2023-02-26T04:47:45.350Z,41.26
2023-02-26T04:48:48.522Z,41.23
2023-02-26T04:49:51.004Z,41.25
2023-02-26T04:50:53.908Z,41.18
2023-02-26T04:51:57.684Z,41.18
2023-02-26T04:53:00.870Z,41.33
2023-02-26T04:54:04.454Z,41.37
2023-02-26T04:55:07.812Z,41.37
2023-02-26T04:56:12.658Z,41.32
2023-02-26T04:57:16.265Z,41.34
2023-02-26T04:58:20.266Z,41.29
2023-02-26T04:59:22.916Z,41.25
2023-02-26T05:00:26.952Z,41.25
2023-02-26T05:01:30.036Z,41.20
2023-02-26T05:02:33.978Z,41.17
2023-02-26T05:03:37.800Z,41.17
2023-02-26T05:04:40.520Z,41.13
2023-02-26T05:05:43.327Z,41.13
2023-02-26T05:06:47.035Z,41.08
2023-02-26T05:07:50.302Z,41.13
2023-02-26T05:08:53.202Z,41.10
2023-02-26T05:09:57.502Z,41.11
2023-02-26T05:11:00.672Z,41.13
2023-02-26T05:12:03.864Z,41.16
2023-02-26T05:13:06.821Z,41.20
2023-02-26T05:14:09.600Z,41.21
2023-02-26T05:15:12.814Z,41.21
2023-02-26T05:16:17.129Z,41.21
2023-02-26T05:17:21.518Z,41.19
2023-02-26T05:18:24.226Z,41.21
2023-02-26T05:19:26.950Z,41.25
2023-02-26T05:20:30.338Z,41.28
2023-02-26T05:21:34.722Z,41.32
2023-02-26T05:22:38.311Z,41.27
2023-02-26T05:23:40.962Z,41.36
2023-02-26T05:24:43.511Z,41.28
2023-02-26T05:25:47.382Z,41.28
2023-02-26T05:26:50.190Z,41.30
2023-02-26T05:27:52.768Z,41.22
2023-02-26T05:28:56.518Z,41.22
2023-02-26T05:29:59.298Z,41.08
2023-02-26T05:31:03.369Z,40.99
2023-02-26T05:32:06.358Z,40.90
2023-02-26T05:33:09.049Z,40.72
2023-02-26T05:34:11.515Z,40.71
2023-02-26T05:35:14.272Z,40.71
2023-02-26T05:36:17.995Z,40.42
2023-02-26T05:37:20.487Z,40.33
2023-02-26T05:38:23.142Z,40.00
2023-02-26T05:39:25.488Z,40.00
2023-02-26T05:40:28.429Z,40.01
2023-02-26T05:41:31.932Z,39.92
2023-02-26T05:42:34.766Z,39.85
2023-02-26T05:43:38.890Z,39.85
2023-02-26T05:44:42.572Z,39.81
2023-02-26T05:45:45.646Z,39.78
2023-02-26T05:46:48.203Z,39.79
2023-02-26T05:47:51.163Z,39.75
2023-02-26T05:48:54.109Z,39.73
2023-02-26T05:49:56.507Z,39.73
2023-02-26T05:50:59.892Z,39.60
2023-02-26T05:52:02.852Z,39.60
2023-02-26T05:53:05.647Z,39.54
2023-02-26T05:54:10.243Z,39.55
2023-02-26T05:55:13.121Z,39.43
2023-02-26T05:56:17.828Z,39.38
2023-02-26T05:57:21.044Z,39.31
2023-02-26T05:58:24.078Z,39.32
2023-02-26T05:59:27.787Z,39.24
2023-02-26T06:00:30.376Z,39.36
2023-02-26T06:01:33.544Z,39.49
2023-02-26T06:02:36.172Z,39.48
2023-02-26T06:03:40.710Z,39.37
2023-02-26T06:05:57.069Z,39.32
2023-02-26T06:07:00.841Z,39.25
2023-02-26T06:08:04.756Z,39.12
2023-02-26T06:09:07.635Z,39.12
2023-02-26T06:10:12.227Z,39.20
2023-02-26T06:11:14.737Z,39.18
2023-02-26T06:12:17.433Z,39.38
2023-02-26T06:13:20.010Z,39.25
2023-02-26T06:14:22.978Z,39.25
2023-02-26T06:15:29.613Z,39.37
2023-02-26T06:16:32.734Z,39.38
2023-02-26T06:17:35.736Z,39.42
2023-02-26T06:18:39.099Z,39.38
2023-02-26T06:19:41.863Z,39.34
2023-02-26T06:20:44.817Z,39.31
2023-02-26T06:21:48.770Z,39.26
2023-02-26T06:22:51.749Z,39.22
2023-02-26T06:23:54.434Z,39.20
2023-02-26T06:24:58.005Z,39.15
2023-02-26T06:26:01.255Z,39.08
2023-02-26T06:27:03.852Z,39.05
2023-02-26T06:28:06.355Z,39.03
2023-02-26T06:29:09.596Z,39.03
2023-02-26T06:30:13.306Z,38.99
2023-02-26T06:31:15.840Z,38.98
2023-02-26T06:32:19.046Z,38.95
2023-02-26T06:33:22.051Z,38.97
2023-02-26T06:34:24.723Z,38.92
2023-02-26T06:36:41.258Z,38.71
2023-02-26T06:37:44.194Z,38.57
2023-02-26T06:38:47.853Z,38.60
2023-02-26T06:39:50.901Z,38.50
2023-02-26T06:40:53.486Z,38.50
2023-02-26T06:41:56.074Z,38.45
2023-02-26T06:42:59.696Z,38.42
2023-02-26T06:44:02.270Z,38.31
2023-02-26T06:45:05.740Z,38.31
2023-02-26T06:46:10.473Z,38.25
2023-02-26T06:47:13.779Z,38.29
2023-02-26T06:48:18.599Z,38.28
2023-02-26T06:49:21.874Z,38.20
2023-02-26T06:50:24.430Z,38.17
2023-02-26T06:51:29.513Z,38.14
2023-02-26T06:52:33.643Z,38.13
2023-02-26T06:53:36.153Z,38.08
2023-02-26T06:54:39.151Z,38.15
2023-02-26T06:55:47.148Z,38.15
2023-02-26T06:56:49.749Z,37.98
2023-02-26T06:57:54.101Z,38.00
2023-02-26T06:58:57.652Z,38.00
2023-02-26T07:00:02.921Z,37.98
2023-02-26T07:01:05.678Z,37.96
2023-02-26T07:02:14.951Z,37.91
2023-02-26T07:03:19.062Z,37.92
2023-02-26T07:04:21.574Z,37.92
2023-02-26T07:05:24.758Z,37.89
2023-02-26T07:06:28.310Z,37.89
2023-02-26T07:07:31.535Z,37.92
2023-02-26T07:08:34.854Z,37.91
2023-02-26T07:09:38.515Z,37.92
2023-02-26T07:10:41.896Z,38.09
2023-02-26T07:11:45.077Z,38.14
2023-02-26T07:12:48.183Z,38.23
2023-02-26T07:13:52.002Z,38.30
2023-02-26T07:14:54.663Z,38.40
2023-02-26T07:15:57.093Z,38.43
2023-02-26T07:17:00.342Z,38.48
2023-02-26T07:18:03.673Z,38.53
2023-02-26T07:19:06.745Z,38.62
2023-02-26T07:20:11.579Z,38.65
2023-02-26T07:21:14.484Z,38.71
2023-02-26T07:22:21.425Z,38.77
2023-02-26T07:23:24.452Z,38.87
2023-02-26T07:24:29.105Z,38.93
2023-02-26T07:25:31.946Z,38.94
2023-02-26T07:26:35.255Z,39.02
2023-02-26T07:27:37.971Z,39.04
2023-02-26T07:28:40.579Z,39.08
2023-02-26T07:29:43.365Z,39.07
2023-02-26T07:30:46.779Z,39.07
2023-02-26T07:31:49.446Z,39.18
2023-02-26T07:32:52.074Z,39.22
2023-02-26T07:33:54.997Z,39.22
2023-02-26T07:34:57.740Z,39.26
2023-02-26T07:36:01.630Z,39.27
2023-02-26T07:37:04.451Z,39.29
2023-02-26T07:38:07.089Z,39.31
2023-02-26T07:39:11.508Z,39.32
2023-02-26T07:40:14.761Z,39.33
2023-02-26T07:41:17.321Z,39.36
2023-02-26T07:42:19.871Z,39.40
2023-02-26T07:43:23.324Z,39.43
2023-02-26T07:44:25.941Z,39.44
2023-02-26T07:45:28.324Z,39.43
2023-02-26T07:46:31.123Z,39.49
2023-02-26T07:47:34.047Z,39.49
2023-02-26T07:48:36.655Z,39.58
2023-02-26T07:49:39.700Z,39.74
2023-02-26T07:51:58.365Z,39.82
2023-02-26T07:53:01.970Z,39.82
2023-02-26T07:54:04.599Z,39.82
2023-02-26T07:55:08.582Z,39.82
2023-02-26T07:56:11.495Z,39.76
2023-02-26T07:57:14.203Z,39.74
2023-02-26T07:58:17.464Z,39.77
2023-02-26T07:59:19.966Z,39.86
2023-02-26T08:00:23.007Z,39.87
2023-02-26T08:01:25.612Z,39.85
2023-02-26T08:02:28.737Z,39.82
2023-02-26T08:03:31.706Z,39.82
2023-02-26T08:04:37.395Z,39.98
2023-02-26T08:05:40.024Z,39.96
2023-02-26T08:06:43.236Z,39.93
2023-02-26T08:07:47.218Z,39.94
2023-02-26T08:08:49.720Z,39.93
2023-02-26T08:09:53.687Z,39.96
2023-02-26T08:11:01.334Z,39.97
2023-02-26T08:12:05.064Z,39.97
2023-02-26T08:13:08.622Z,39.99
2023-02-26T08:14:11.452Z,40.03
2023-02-26T08:15:15.194Z,39.99
2023-02-26T08:16:18.542Z,40.07
2023-02-26T08:17:22.109Z,40.07
2023-02-26T08:18:25.051Z,40.12
2023-02-26T08:19:27.485Z,40.15
2023-02-26T08:20:30.572Z,40.13
2023-02-26T08:21:33.565Z,40.16
2023-02-26T08:22:36.285Z,40.19
2023-02-26T08:23:40.240Z,40.32
2023-02-26T08:24:43.746Z,40.31
2023-02-26T08:25:47.139Z,40.32
2023-02-26T08:26:50.837Z,40.41
2023-02-26T08:27:53.432Z,40.42
2023-02-26T08:28:57.029Z,40.40
2023-02-26T08:29:59.884Z,40.44
2023-02-26T08:31:02.619Z,40.41
2023-02-26T08:32:05.426Z,40.37
2023-02-26T08:33:08.548Z,40.35
2023-02-26T08:34:11.180Z,40.41
2023-02-26T08:35:14.736Z,40.33
2023-02-26T08:36:18.655Z,40.37
2023-02-26T08:37:23.958Z,40.35
2023-02-26T08:38:27.360Z,40.34
2023-02-26T08:39:31.797Z,40.35
2023-02-26T08:40:34.661Z,40.37
2023-02-26T08:41:37.818Z,40.36
2023-02-26T08:42:40.737Z,40.29
2023-02-26T08:43:43.547Z,40.29
2023-02-26T08:44:46.735Z,40.24
2023-02-26T08:45:54.230Z,40.18
2023-02-26T08:46:58.058Z,40.23
2023-02-26T08:48:00.870Z,40.23
2023-02-26T08:49:04.508Z,40.17
2023-02-26T08:50:12.424Z,40.16
2023-02-26T08:51:15.200Z,40.13
2023-02-26T08:52:17.789Z,40.06
2023-02-26T08:53:20.341Z,40.01
2023-02-26T08:54:23.252Z,39.92
2023-02-26T08:55:26.566Z,39.86
2023-02-26T08:56:29.542Z,39.77
2023-02-26T08:57:32.373Z,39.66
2023-02-26T08:58:34.875Z,39.45
2023-02-26T08:59:37.338Z,39.44
2023-02-26T09:00:40.074Z,39.33
2023-02-26T09:01:44.663Z,39.16
2023-02-26T09:02:47.604Z,39.01
2023-02-26T09:03:52.148Z,38.92
2023-02-26T09:04:54.747Z,38.82
2023-02-26T09:05:57.331Z,38.75
2023-02-26T09:07:00.705Z,38.71
2023-02-26T09:08:04.345Z,38.59
2023-02-26T09:09:07.010Z,38.36
2023-02-26T09:10:11.236Z,38.35
2023-02-26T09:11:15.010Z,38.15
2023-02-26T09:12:17.940Z,38.25
2023-02-26T09:13:21.686Z,38.36
2023-02-26T09:14:24.473Z,38.42
2023-02-26T09:15:27.323Z,38.45
2023-02-26T09:16:32.404Z,38.71
2023-02-26T09:17:35.813Z,38.67
2023-02-26T09:18:38.655Z,38.67
2023-02-26T09:19:41.179Z,38.70
2023-02-26T09:20:45.129Z,38.76
2023-02-26T09:21:48.088Z,38.78
2023-02-26T09:22:50.688Z,38.80
2023-02-26T09:23:58.478Z,38.95
2023-02-26T09:25:02.788Z,38.88
2023-02-26T09:26:07.943Z,38.68
2023-02-26T09:27:12.413Z,38.08
2023-02-26T09:28:17.805Z,38.08
2023-02-26T09:29:20.599Z,37.88
2023-02-26T09:30:23.435Z,37.77
2023-02-26T09:31:28.832Z,37.46
2023-02-26T09:32:33.597Z,37.26
2023-02-26T09:33:37.188Z,37.04
2023-02-26T09:34:41.266Z,36.94
2023-02-26T09:35:44.426Z,37.08
2023-02-26T09:36:48.663Z,37.18
2023-02-26T09:37:51.397Z,37.06
2023-02-26T09:38:54.204Z,37.35
2023-02-26T09:39:57.835Z,37.45
2023-02-26T09:42:28.617Z,34.48
2023-02-26T09:43:59.289Z,37.02
2023-02-26T09:45:01.880Z,37.49
2023-02-26T09:46:09.358Z,37.88
2023-02-26T09:47:16.555Z,38.10
2023-02-26T09:48:19.663Z,38.83
2023-02-26T09:50:41.092Z,37.01
2023-02-26T09:51:43.970Z,37.14
2023-02-26T09:53:08.829Z,37.11
2023-02-26T09:54:17.920Z,37.64
2023-02-26T09:55:28.581Z,37.35
2023-02-26T09:56:33.274Z,37.28
2023-02-26T09:57:38.031Z,37.31
2023-02-26T09:58:45.002Z,37.33
2023-02-26T09:59:47.450Z,37.30
2023-02-26T10:01:12.296Z,37.31
2023-02-26T10:02:40.321Z,37.24
2023-02-26T10:03:56.155Z,37.00
2023-02-26T10:05:09.180Z,35.80
2023-02-26T10:06:30.524Z,31.67
2023-02-26T10:07:46.480Z,35.87
2023-02-26T10:10:36.070Z,36.76
2023-02-26T10:13:01.436Z,33.18
2023-02-26T10:15:25.098Z,30.97
2023-02-26T10:16:30.369Z,33.49
2023-02-26T10:17:58.283Z,35.75
2023-02-26T10:20:27.353Z,36.82
2023-02-26T10:21:39.450Z,36.99
2023-02-26T10:22:48.315Z,37.13
2023-02-26T10:23:56.651Z,37.51
2023-02-26T10:25:15.982Z,37.72
2023-02-26T10:26:22.553Z,37.87
2023-02-26T10:27:35.996Z,38.23
2023-02-26T10:29:12.944Z,38.42
2023-02-26T10:30:30.495Z,38.57
2023-02-26T10:31:40.061Z,38.65
2023-02-26T10:33:01.810Z,38.79
2023-02-26T10:34:23.589Z,38.88
2023-02-26T10:35:29.228Z,39.08
2023-02-26T10:36:55.657Z,39.50
2023-02-26T10:38:04.339Z,39.44
2023-02-26T10:39:20.214Z,39.56
2023-02-26T10:40:42.015Z,39.61
2023-02-26T10:41:44.513Z,39.69
2023-02-26T10:45:40.178Z,39.67
2023-02-26T10:47:07.569Z,39.71
2023-02-26T10:48:30.594Z,39.69
2023-02-26T10:49:45.814Z,39.58
2023-02-26T10:52:12.271Z,39.57
2023-02-26T10:53:14.754Z,39.65
2023-02-26T10:55:47.217Z,39.87
2023-02-26T10:56:50.549Z,40.08
2023-02-26T10:59:16.936Z,40.43
2023-02-26T11:00:20.728Z,40.57
2023-02-26T11:01:26.649Z,40.59
2023-02-26T11:02:39.505Z,40.59
2023-02-26T11:03:49.597Z,40.64
2023-02-26T11:05:06.836Z,40.71
2023-02-26T11:06:03.156Z,40.77
2023-02-26T11:07:06.530Z,40.82
2023-02-26T11:08:14.512Z,40.84
2023-02-26T11:09:23.820Z,40.87
2023-02-26T11:10:30.323Z,40.90
2023-02-26T11:11:52.755Z,40.93
2023-02-26T11:12:55.244Z,40.98
2023-02-26T11:13:59.118Z,40.90
2023-02-26T11:15:02.049Z,40.92
2023-02-26T11:16:16.011Z,41.03
2023-02-26T11:18:41.993Z,41.22
2023-02-26T11:20:08.919Z,41.36
2023-02-26T11:21:18.548Z,41.37
2023-02-26T11:22:21.800Z,41.28
2023-02-26T11:23:27.776Z,41.23
2023-02-26T11:24:46.418Z,41.23
2023-02-26T11:26:08.667Z,41.24
2023-02-26T11:28:32.794Z,41.34
2023-02-26T11:29:39.216Z,41.44
2023-02-26T11:30:42.708Z,41.45
2023-02-26T11:33:24.087Z,41.52
2023-02-26T11:34:27.057Z,41.59
2023-02-26T11:35:29.732Z,41.56
2023-02-26T11:36:34.018Z,41.52
2023-02-26T11:37:38.789Z,41.58
2023-02-26T11:38:57.043Z,41.57
2023-02-26T11:40:09.496Z,41.47
2023-02-26T11:41:14.040Z,41.41
2023-02-26T11:42:18.915Z,41.17
2023-02-26T11:43:23.179Z,40.96
2023-02-26T11:45:45.351Z,40.67
2023-02-26T11:46:58.828Z,40.07
2023-02-26T11:48:04.609Z,39.76
2023-02-26T11:49:08.781Z,39.83
2023-02-26T11:51:29.915Z,39.93
2023-02-26T11:53:52.563Z,39.75
2023-02-26T11:56:22.250Z,39.22
2023-02-26T11:57:27.781Z,39.10
2023-02-26T11:58:34.511Z,39.33
2023-02-26T11:59:37.939Z,38.96
2023-02-26T12:00:40.757Z,38.46
2023-02-26T12:01:44.289Z,38.64
2023-02-26T12:02:47.267Z,38.54
2023-02-26T12:03:51.746Z,38.53
2023-02-26T12:04:59.043Z,38.64
2023-02-26T12:06:04.798Z,38.49
2023-02-26T12:07:14.909Z,38.53
2023-02-26T12:08:23.990Z,38.46
2023-02-26T12:09:29.448Z,38.46
2023-02-26T12:12:25.984Z,38.55
2023-02-26T12:14:49.536Z,38.16
2023-02-26T12:15:58.840Z,38.15
2023-02-26T12:17:25.127Z,38.57
2023-02-26T12:18:48.960Z,38.85
2023-02-26T12:21:51.201Z,39.38
2023-02-26T12:24:47.829Z,39.94
2023-02-26T12:25:57.958Z,40.06
2023-02-26T12:27:08.506Z,40.17
2023-02-26T12:28:27.111Z,40.21
2023-02-26T12:29:48.314Z,40.23
2023-02-26T12:31:23.979Z,40.20
2023-02-26T12:34:02.203Z,40.24
2023-02-26T12:35:18.450Z,40.37
2023-02-26T12:38:00.708Z,40.45
2023-02-26T12:39:19.509Z,40.45
2023-02-26T12:40:51.436Z,40.44
2023-02-26T12:42:08.032Z,40.43
2023-02-26T12:43:20.358Z,40.29
2023-02-26T12:44:34.954Z,40.17
2023-02-26T12:45:41.566Z,40.13
2023-02-26T12:48:32.205Z,40.04
2023-02-26T12:50:06.194Z,40.02
2023-02-26T12:51:28.312Z,39.99
2023-02-26T12:54:15.262Z,39.98
2023-02-26T12:57:08.423Z,39.85
2023-02-26T12:58:42.978Z,39.97
2023-02-26T13:01:11.521Z,39.85
2023-02-26T13:02:53.242Z,39.87
2023-02-26T13:04:21.009Z,39.83
2023-02-26T13:05:58.526Z,39.69
2023-02-26T13:08:38.520Z,39.55
2023-02-26T13:09:49.684Z,39.61
2023-02-26T13:10:59.289Z,39.66
2023-02-26T13:12:06.111Z,39.67
2023-02-26T13:13:29.504Z,39.66
2023-02-26T13:14:59.226Z,39.71
2023-02-26T13:16:20.778Z,39.59
2023-02-26T13:17:32.871Z,39.49
2023-02-26T13:19:01.693Z,39.37
2023-02-26T13:20:26.171Z,39.34
2023-02-26T13:21:42.263Z,39.24
2023-02-26T13:22:47.822Z,39.23
2023-02-26T13:25:29.052Z,39.09
2023-02-26T13:26:33.291Z,39.01
2023-02-26T13:27:37.625Z,39.00
2023-02-26T13:29:01.778Z,39.05
2023-02-26T13:30:20.591Z,39.07
2023-02-26T13:31:31.416Z,39.02
2023-02-26T13:32:35.103Z,39.04
2023-02-26T13:33:38.405Z,39.00
2023-02-26T13:34:46.700Z,39.05
2023-02-26T13:35:49.953Z,39.01
2023-02-26T13:36:55.630Z,38.99
2023-02-26T13:38:00.041Z,38.97
2023-02-26T13:39:12.534Z,38.91
2023-02-26T13:40:51.241Z,38.86
2023-02-26T13:42:20.983Z,38.75
2023-02-26T13:45:12.908Z,38.56
2023-02-26T13:46:24.977Z,38.60
2023-02-26T13:47:39.751Z,38.67
2023-02-26T13:49:05.061Z,38.72
2023-02-26T13:50:29.665Z,38.78
2023-02-26T13:53:29.215Z,38.64
2023-02-26T13:54:43.685Z,38.58
2023-02-26T13:55:48.180Z,38.60
2023-02-26T13:57:06.817Z,38.66
2023-02-26T13:58:28.262Z,38.72
2023-02-26T13:59:45.562Z,38.72
2023-02-26T14:01:06.686Z,38.69
2023-02-26T14:02:21.696Z,38.64
2023-02-26T14:03:29.909Z,38.60
2023-02-26T14:04:33.686Z,38.59
2023-02-26T14:05:45.461Z,38.54
2023-02-26T14:08:18.994Z,38.53
2023-02-26T14:09:26.601Z,38.46
2023-02-26T14:10:44.905Z,38.41
2023-02-26T14:12:05.356Z,38.36
2023-02-26T14:13:21.932Z,38.29
2023-02-26T14:14:36.438Z,38.19
2023-02-26T14:17:19.722Z,38.15
2023-02-26T14:18:31.278Z,38.18
2023-02-26T14:19:53.229Z,38.34
2023-02-26T14:21:17.010Z,38.45
2023-02-26T14:22:25.339Z,38.54
2023-02-26T14:25:02.130Z,38.75
2023-02-26T14:26:08.613Z,38.78
2023-02-26T14:27:15.637Z,38.79
2023-02-26T14:28:28.990Z,38.80
2023-02-26T14:29:59.081Z,38.84
2023-02-26T14:31:10.048Z,38.80
2023-02-26T14:33:31.453Z,38.74
2023-02-26T14:34:38.472Z,38.76
2023-02-26T14:35:46.290Z,38.79
2023-02-26T14:36:53.463Z,38.79
2023-02-26T14:39:32.870Z,38.76
2023-02-26T14:40:38.836Z,38.76
2023-02-26T14:41:42.010Z,38.75
2023-02-26T14:42:51.415Z,38.76
2023-02-26T14:44:00.226Z,38.78
2023-02-26T14:45:19.195Z,38.78
2023-02-26T14:46:21.925Z,38.80
2023-02-26T14:47:27.809Z,38.77
2023-02-26T14:48:32.113Z,38.79
2023-02-26T14:49:40.402Z,38.80
2023-02-26T14:50:55.963Z,38.81
2023-02-26T14:52:04.281Z,38.78
2023-02-26T14:54:36.330Z,38.79
2023-02-26T14:55:45.587Z,38.89
2023-02-26T14:57:10.312Z,39.01
2023-02-26T14:58:17.828Z,39.01
2023-02-26T15:01:24.526Z,38.99
2023-02-26T15:03:54.546Z,38.94
2023-02-26T15:05:16.753Z,39.03
2023-02-26T15:08:07.824Z,39.28
2023-02-26T15:09:17.259Z,39.32
2023-02-26T15:10:44.841Z,39.25
2023-02-26T15:11:51.071Z,39.18
2023-02-26T15:13:10.665Z,39.11
2023-02-26T15:14:28.777Z,39.10
2023-02-26T15:15:35.150Z,39.08
2023-02-26T15:16:45.407Z,39.07
2023-02-26T15:17:55.006Z,39.11
2023-02-26T15:19:27.183Z,39.09
2023-02-26T15:20:59.397Z,39.05
2023-02-26T15:22:30.813Z,39.02
2023-02-26T15:23:42.289Z,38.99
2023-02-26T15:24:44.944Z,39.04
2023-02-26T15:25:48.787Z,38.99
2023-02-26T15:26:54.418Z,39.06
2023-02-26T15:27:56.928Z,39.06
2023-02-26T15:29:00.247Z,39.06
2023-02-26T15:30:05.142Z,39.03
2023-02-26T15:31:12.338Z,39.05
2023-02-26T15:32:24.426Z,38.99
2023-02-26T15:33:27.709Z,39.06
2023-02-26T15:34:30.780Z,39.09
2023-02-26T15:35:34.993Z,39.11
2023-02-26T15:36:39.954Z,36.99
2023-02-26T15:37:43.415Z,36.99
2023-02-26T15:38:49.289Z,37.39
2023-02-26T15:39:52.990Z,37.31
2023-02-26T15:40:58.977Z,37.28
2023-02-26T15:42:03.291Z,37.09
2023-02-26T15:43:07.968Z,37.04
2023-02-26T15:44:14.489Z,37.06
2023-02-26T15:45:30.326Z,37.06
2023-02-26T15:46:39.596Z,37.10
2023-02-26T15:47:43.154Z,37.07
2023-02-26T15:48:45.653Z,37.01
2023-02-26T15:49:47.971Z,37.00
2023-02-26T15:52:16.077Z,36.97
2023-02-26T15:54:43.137Z,36.95
2023-02-26T15:57:02.140Z,37.14
2023-02-26T15:58:05.769Z,37.21
2023-02-26T15:59:13.668Z,37.77
2023-02-26T16:00:20.848Z,37.44
2023-02-26T16:01:26.833Z,37.42